Time;durP1;ratioP1;P1;durP2;ratioP2;P2;SDS_P1;SDS_P2;PMS_P1;PMS_P2;Temp;Humidity;BMP_temperature;BMP_pressure;BME280_temperature;BME280_humidity;BME280_pressure;Samples;Min_cycle;Max_cycle;Signal;HPM_P1;HPM_P2
2022/04/12 00:00:43;;;;;;;17.95;14.38;;;7.70;99.90;;;;;;4956434;28;20081;-77
2022/04/12 00:03:09;;;;;;;19.30;15.10;;;7.70;99.90;;;;;;4976203;28;20034;-77
2022/04/12 00:05:40;;;;;;;18.13;15.15;;;7.70;99.90;;;;;;4972228;28;20093;-77
2022/04/12 00:08:07;;;;;;;17.88;14.80;;;7.70;99.90;;;;;;4988662;28;20050;-77
2022/04/12 00:10:33;;;;;;;18.52;14.93;;;7.70;99.90;;;;;;4988968;28;20446;-77
2022/04/12 00:13:00;;;;;;;18.30;13.25;;;7.60;99.90;;;;;;4998519;28;20442;-77
2022/04/12 00:15:26;;;;;;;18.38;14.85;;;7.60;99.90;;;;;;4977510;28;20397;-77
2022/04/12 00:20:37;;;;;;;19.08;14.75;;;7.70;99.90;;;;;;4995596;28;20406;-77
2022/04/12 00:23:03;;;;;;;18.42;14.95;;;7.70;99.90;;;;;;4994806;28;20050;-77
2022/04/12 00:25:29;;;;;;;18.35;14.95;;;7.70;99.90;;;;;;4995112;28;20084;-77
2022/04/12 00:27:57;;;;;;;17.70;14.45;;;7.70;99.90;;;;;;4994755;28;20053;-77
2022/04/12 00:30:28;;;;;;;18.90;15.13;;;7.60;99.90;;;;;;4995104;28;20046;-77
2022/04/12 00:32:53;;;;;;;19.88;14.88;;;7.60;99.90;;;;;;4994017;28;20100;-77
2022/04/12 00:35:20;;;;;;;17.92;14.05;;;7.60;99.90;;;;;;4978871;28;20046;-77
2022/04/12 00:37:47;;;;;;;18.45;15.15;;;7.50;99.90;;;;;;4994723;28;20042;-77
2022/04/12 00:40:15;;;;;;;17.65;14.75;;;7.50;99.90;;;;;;4994914;28;20054;-77
2022/04/12 00:42:40;;;;;;;19.40;15.05;;;7.40;99.90;;;;;;4994638;28;20121;-77
2022/04/12 00:45:06;;;;;;;19.20;14.68;;;7.50;99.90;;;;;;4994724;28;20476;-77
2022/04/12 00:47:32;;;;;;;16.58;13.73;;;7.50;99.90;;;;;;4993799;28;20045;-77
2022/04/12 00:49:58;;;;;;;18.55;14.80;;;7.40;99.90;;;;;;4994974;28;20042;-77
2022/04/12 00:52:26;;;;;;;17.80;15.05;;;7.50;99.90;;;;;;4978484;28;20045;-77
2022/04/12 00:54:53;;;;;;;20.80;15.30;;;7.30;99.90;;;;;;4978253;28;20576;-77
2022/04/12 00:57:19;;;;;;;17.55;14.27;;;7.20;99.90;;;;;;4994421;28;20046;-77
2022/04/12 00:59:46;;;;;;;17.75;13.43;;;7.20;99.90;;;;;;4994861;28;20125;-77
2022/04/12 01:02:12;;;;;;;17.48;14.88;;;7.20;99.90;;;;;;4987859;28;20121;-77
2022/04/12 01:04:37;;;;;;;19.23;14.50;;;7.20;99.90;;;;;;4977728;28;20042;-77
2022/04/12 01:07:04;;;;;;;18.80;13.88;;;7.20;99.90;;;;;;4978051;28;20048;-77
2022/04/12 01:09:30;;;;;;;17.20;14.15;;;7.20;99.90;;;;;;4978203;28;20043;-77
2022/04/12 01:11:57;;;;;;;19.95;14.75;;;7.30;99.90;;;;;;4994332;28;20457;-77
2022/04/12 01:14:25;;;;;;;17.85;14.43;;;7.20;99.90;;;;;;4994114;28;20042;-77
2022/04/12 01:16:51;;;;;;;18.33;14.40;;;7.10;99.90;;;;;;4994580;28;20498;-77
2022/04/12 01:19:18;;;;;;;18.80;14.60;;;7.00;99.90;;;;;;4993282;28;20034;-77
2022/04/12 01:22:01;;;;;;;18.40;14.85;;;7.00;99.90;;;;;;4994201;28;20061;-77
2022/04/12 01:24:28;;;;;;;18.52;14.73;;;6.90;99.90;;;;;;4993961;28;20054;-77
2022/04/12 01:26:53;;;;;;;17.13;14.27;;;6.80;99.90;;;;;;4992884;28;20165;-77
2022/04/12 01:29:19;;;;;;;20.15;14.63;;;6.80;99.90;;;;;;4993776;28;20137;-77
2022/04/12 01:31:46;;;;;;;20.33;15.00;;;6.80;99.90;;;;;;4994015;28;20045;-77
2022/04/12 01:34:12;;;;;;;18.70;15.68;;;6.80;99.90;;;;;;4993224;28;20038;-77
2022/04/12 01:36:38;;;;;;;21.83;14.70;;;6.70;99.90;;;;;;4994149;28;20482;-77
2022/04/12 01:39:04;;;;;;;19.10;14.23;;;6.60;99.90;;;;;;4993502;28;20180;-76
2022/04/12 01:41:29;;;;;;;19.95;15.75;;;6.70;99.90;;;;;;4965715;28;20101;-76
2022/04/12 01:43:55;;;;;;;19.77;16.50;;;6.70;99.90;;;;;;4974017;28;20454;-76
2022/04/12 01:46:21;;;;;;;18.58;15.27;;;6.70;99.90;;;;;;4958098;28;20054;-76
2022/04/12 01:48:48;;;;;;;21.10;15.60;;;6.70;99.90;;;;;;4957213;28;20045;-76
2022/04/12 01:51:14;;;;;;;19.10;15.43;;;6.60;99.90;;;;;;4974135;28;20042;-76
2022/04/12 01:53:40;;;;;;;17.52;15.02;;;6.50;99.90;;;;;;4973676;28;20454;-76
2022/04/12 01:56:05;;;;;;;19.30;15.50;;;6.40;99.90;;;;;;4958051;28;20047;-76
2022/04/12 01:58:32;;;;;;;17.85;15.57;;;6.50;99.90;;;;;;4974077;28;20398;-76
2022/04/12 02:00:59;;;;;;;19.20;14.80;;;6.50;99.90;;;;;;4957888;28;20043;-76
2022/04/12 02:03:24;;;;;;;19.05;15.48;;;6.40;99.90;;;;;;4972951;28;20046;-76
2022/04/12 02:05:51;;;;;;;18.88;15.18;;;6.40;99.90;;;;;;4973814;28;20105;-76
2022/04/12 02:08:17;;;;;;;19.52;15.57;;;6.30;99.90;;;;;;4973529;28;20138;-76
2022/04/12 02:10:43;;;;;;;19.08;15.18;;;6.20;99.90;;;;;;4957768;28;20105;-76
2022/04/12 02:13:09;;;;;;;19.00;15.25;;;6.30;99.90;;;;;;4973692;28;20048;-76
2022/04/12 02:15:35;;;;;;;19.73;15.25;;;6.30;99.90;;;;;;4957730;28;20039;-76
2022/04/12 02:18:01;;;;;;;21.33;15.18;;;6.20;99.90;;;;;;4972935;28;20039;-76
2022/04/12 02:20:27;;;;;;;20.08;15.52;;;6.20;99.90;;;;;;4973672;28;20053;-76
2022/04/12 02:22:53;;;;;;;19.65;15.30;;;6.20;99.90;;;;;;4973403;28;20057;-76
2022/04/12 02:25:19;;;;;;;17.90;14.63;;;6.10;99.90;;;;;;4973461;28;20051;-76
2022/04/12 02:27:45;;;;;;;19.02;15.05;;;6.10;99.90;;;;;;4957264;28;20463;-76
2022/04/12 02:30:12;;;;;;;19.33;15.75;;;6.10;99.90;;;;;;4957386;28;20074;-76
2022/04/12 02:32:39;;;;;;;18.40;15.00;;;6.10;99.90;;;;;;4972778;28;20821;-76
2022/04/12 02:35:05;;;;;;;20.40;15.10;;;6.00;99.90;;;;;;4973638;28;20043;-76
2022/04/12 02:37:31;;;;;;;19.15;15.65;;;6.00;99.90;;;;;;4972862;28;20039;-76
2022/04/12 02:39:56;;;;;;;19.25;15.02;;;6.00;99.90;;;;;;4957222;28;20129;-76
2022/04/12 02:42:22;;;;;;;19.10;14.63;;;6.10;99.90;;;;;;4973051;28;20051;-76
2022/04/12 02:44:48;;;;;;;19.65;14.80;;;6.00;99.90;;;;;;4957161;28;20079;-76
2022/04/12 02:47:13;;;;;;;18.80;14.32;;;6.00;99.90;;;;;;4972660;28;20600;-76
2022/04/12 02:49:39;;;;;;;19.98;14.23;;;6.00;99.90;;;;;;4956920;28;20039;-76
2022/04/12 02:52:05;;;;;;;19.02;14.73;;;5.90;99.90;;;;;;4973052;28;20043;-76
2022/04/12 02:54:31;;;;;;;19.38;14.63;;;5.90;99.90;;;;;;4956799;28;20065;-76
2022/04/12 02:56:57;;;;;;;19.35;15.38;;;5.90;99.90;;;;;;4957049;28;20047;-76
2022/04/12 02:59:23;;;;;;;18.75;14.82;;;5.80;99.90;;;;;;4957268;28;20042;-76
2022/04/12 03:01:49;;;;;;;20.85;15.32;;;5.80;99.90;;;;;;4957154;28;20046;-76
2022/04/12 03:04:15;;;;;;;18.65;14.82;;;5.70;99.90;;;;;;4956278;28;20038;-76
2022/04/12 03:06:41;;;;;;;17.63;15.07;;;5.70;99.90;;;;;;4972973;28;20050;-76
2022/04/12 03:09:06;;;;;;;18.48;15.02;;;5.70;99.90;;;;;;4957030;28;20039;-76
2022/04/12 03:11:32;;;;;;;19.35;15.13;;;5.60;99.90;;;;;;4973026;28;20074;-76
2022/04/12 03:13:58;;;;;;;19.02;15.05;;;5.60;99.90;;;;;;4956668;28;20037;-76
2022/04/12 03:16:25;;;;;;;19.63;15.65;;;5.70;99.90;;;;;;4973017;28;20055;-76
2022/04/12 03:18:50;;;;;;;19.55;15.48;;;5.50;99.90;;;;;;4956169;28;20487;-76
2022/04/12 03:21:16;;;;;;;21.00;15.40;;;5.50;99.90;;;;;;4973258;28;20054;-76
2022/04/12 03:23:42;;;;;;;20.90;15.15;;;5.50;99.90;;;;;;4940694;28;20045;-76
2022/04/12 03:26:07;;;;;;;21.23;14.80;;;5.50;99.90;;;;;;4956758;28;20114;-76
2022/04/12 03:28:33;;;;;;;19.83;15.45;;;5.60;99.90;;;;;;4956526;28;20042;-76
2022/04/12 03:30:59;;;;;;;20.48;15.10;;;5.50;99.90;;;;;;4972708;28;20043;-76
2022/04/12 03:33:25;;;;;;;20.35;16.00;;;5.50;99.90;;;;;;4955660;28;20042;-76
2022/04/12 03:35:51;;;;;;;20.30;15.95;;;5.30;99.90;;;;;;4956659;28;20047;-76
2022/04/12 03:38:16;;;;;;;18.83;15.70;;;5.20;99.90;;;;;;4972399;28;20047;-76
2022/04/12 03:40:46;;;;;;;20.38;15.20;;;5.20;99.90;;;;;;4956610;28;20062;-76
2022/04/12 03:43:12;;;;;;;22.30;16.02;;;5.20;99.90;;;;;;4956404;28;20043;-76
2022/04/12 03:45:37;;;;;;;20.13;15.90;;;5.20;99.90;;;;;;4972624;28;20174;-76
2022/04/12 03:48:04;;;;;;;19.02;15.07;;;5.20;99.90;;;;;;4971592;28;20493;-76
2022/04/12 03:50:31;;;;;;;20.42;15.23;;;5.20;99.90;;;;;;4974706;28;20042;-76
2022/04/12 03:52:56;;;;;;;21.02;15.98;;;5.30;99.90;;;;;;4976124;28;20106;-76
2022/04/12 03:55:34;;;;;;;17.23;14.45;;;5.20;99.90;;;;;;4976296;28;20089;-76
2022/04/12 03:58:02;;;;;;;20.02;15.43;;;5.20;99.90;;;;;;4961413;28;20138;-76
2022/04/12 04:00:28;;;;;;;16.77;14.02;;;5.30;99.90;;;;;;4960112;28;20078;-76
2022/04/12 04:02:55;;;;;;;17.35;14.27;;;5.30;99.90;;;;;;4975184;28;20085;-76
2022/04/12 04:05:22;;;;;;;21.00;15.25;;;5.40;99.90;;;;;;4976027;28;20047;-76
2022/04/12 04:07:48;;;;;;;17.90;14.18;;;5.40;99.90;;;;;;4975859;28;20078;-76
2022/04/12 04:10:14;;;;;;;19.05;15.00;;;5.40;99.90;;;;;;4960008;28;20117;-76
2022/04/12 04:12:40;;;;;;;19.30;14.60;;;5.40;99.90;;;;;;4959495;28;20070;-76
2022/04/12 04:15:11;;;;;;;20.05;15.00;;;5.40;99.90;;;;;;4959917;28;20458;-76
2022/04/12 04:17:40;;;;;;;18.77;14.53;;;5.30;99.90;;;;;;4974952;28;20051;-76
2022/04/12 04:20:06;;;;;;;17.17;14.38;;;5.30;99.90;;;;;;4976106;28;20049;-76
2022/04/12 04:22:32;;;;;;;19.50;14.57;;;5.30;99.90;;;;;;4959517;28;20039;-76
2022/04/12 04:24:57;;;;;;;18.42;14.48;;;5.30;99.90;;;;;;4975758;28;20054;-76
2022/04/12 04:27:28;;;;;;;20.00;14.65;;;5.30;99.90;;;;;;4975405;28;20046;-76
2022/04/12 04:29:55;;;;;;;17.48;14.55;;;5.30;99.90;;;;;;4944384;28;20050;-76
2022/04/12 04:32:22;;;;;;;18.38;14.68;;;5.40;99.90;;;;;;4974652;28;20105;-76
2022/04/12 04:34:48;;;;;;;16.60;14.18;;;5.40;99.90;;;;;;4975676;28;20050;-76
2022/04/12 04:37:13;;;;;;;17.90;14.50;;;5.40;99.90;;;;;;4959606;28;20054;-76
2022/04/12 04:39:39;;;;;;;17.25;13.35;;;5.40;99.90;;;;;;4959383;28;20050;-76
2022/04/12 04:42:05;;;;;;;19.83;14.27;;;5.50;99.90;;;;;;4959115;28;20453;-76
2022/04/12 04:44:32;;;;;;;17.95;14.13;;;5.40;99.90;;;;;;4959248;28;20047;-76
2022/04/12 04:46:58;;;;;;;17.60;14.07;;;5.40;99.90;;;;;;4975199;28;20070;-76
2022/04/12 04:49:23;;;;;;;19.55;14.75;;;5.40;99.90;;;;;;4958716;28;20050;-76
2022/04/12 04:51:49;;;;;;;20.45;14.70;;;5.40;99.90;;;;;;4959296;28;20035;-76
2022/04/12 04:54:15;;;;;;;17.60;14.55;;;5.40;99.90;;;;;;4974870;28;20117;-76
2022/04/12 04:56:40;;;;;;;17.65;14.02;;;5.40;99.90;;;;;;4959059;28;20050;-76
2022/04/12 04:59:06;;;;;;;18.08;13.98;;;5.30;99.90;;;;;;4958849;28;20126;-76
2022/04/12 05:01:32;;;;;;;18.55;14.30;;;5.40;99.90;;;;;;4974791;28;20039;-76
2022/04/12 05:03:58;;;;;;;16.90;13.63;;;5.30;99.90;;;;;;4974382;28;20046;-76
2022/04/12 05:06:23;;;;;;;18.38;14.32;;;5.30;99.90;;;;;;4974975;28;20137;-76
2022/04/12 05:08:49;;;;;;;19.25;14.52;;;5.30;99.90;;;;;;4975051;28;20034;-76
2022/04/12 05:11:15;;;;;;;18.02;14.80;;;5.30;99.90;;;;;;4958827;28;20043;-76
2022/04/12 05:13:40;;;;;;;21.88;14.73;;;5.30;99.90;;;;;;4974528;28;20039;-76
2022/04/12 05:16:06;;;;;;;19.10;15.10;;;5.30;99.90;;;;;;4960141;28;20429;-76
2022/04/12 05:18:32;;;;;;;17.88;13.95;;;5.30;99.90;;;;;;4992414;28;20129;-76
2022/04/12 05:20:57;;;;;;;18.60;13.68;;;5.30;99.90;;;;;;4993872;28;20053;-76
2022/04/12 05:23:23;;;;;;;17.27;14.10;;;5.40;99.90;;;;;;4977748;28;20082;-76
2022/04/12 05:25:53;;;;;;;18.67;13.85;;;5.40;99.90;;;;;;4986300;28;20486;-76
2022/04/12 05:28:22;;;;;;;20.00;15.15;;;5.40;99.90;;;;;;4981939;28;20038;-79
2022/04/12 05:30:48;;;;;;;20.42;14.27;;;5.40;99.90;;;;;;4994880;28;20066;-79
2022/04/12 05:33:14;;;;;;;19.30;14.15;;;5.30;99.90;;;;;;4956920;28;20090;-79
2022/04/12 05:35:40;;;;;;;19.88;15.10;;;5.40;99.90;;;;;;4949201;28;20039;-79
2022/04/12 05:38:06;;;;;;;20.40;14.68;;;5.40;99.90;;;;;;4979757;28;20485;-80
2022/04/12 05:40:33;;;;;;;21.58;15.23;;;5.40;99.90;;;;;;4977301;28;20450;-79
2022/04/12 05:42:59;;;;;;;19.40;14.80;;;5.40;99.90;;;;;;4974924;28;20402;-80
2022/04/12 05:45:25;;;;;;;18.38;14.13;;;5.40;99.90;;;;;;4979264;28;20050;-80
2022/04/12 05:47:53;;;;;;;18.75;14.70;;;5.40;99.90;;;;;;4964530;28;20035;-80
2022/04/12 05:50:24;;;;;;;19.40;15.18;;;5.60;99.90;;;;;;4979663;28;20136;-80
2022/04/12 05:52:50;;;;;;;19.77;14.98;;;5.70;99.90;;;;;;4984422;28;20042;-80
2022/04/12 05:55:17;;;;;;;20.05;14.35;;;6.00;99.90;;;;;;4975966;28;20078;-78
2022/04/12 05:57:52;;;;;;;19.15;13.52;;;6.30;99.90;;;;;;4992778;28;20136;-79
2022/04/12 06:00:19;;;;;;;16.95;12.65;;;6.70;99.90;;;;;;4962258;28;20042;-78
2022/04/12 06:02:46;;;;;;;17.45;12.65;;;7.00;99.90;;;;;;4992376;28;20061;-78
2022/04/12 06:05:13;;;;;;;17.45;11.98;;;7.30;99.90;;;;;;4974678;28;20085;-78
2022/04/12 06:07:40;;;;;;;15.75;12.38;;;7.60;99.90;;;;;;4973105;28;20119;-78
2022/04/12 06:10:07;;;;;;;17.00;12.45;;;7.90;99.90;;;;;;4973997;28;20117;-79
2022/04/12 06:12:33;;;;;;;15.32;11.13;;;8.20;99.90;;;;;;4959853;28;20181;-78
2022/04/12 06:14:59;;;;;;;17.55;12.45;;;8.40;99.90;;;;;;4976867;28;20126;-77
2022/04/12 06:17:32;;;;;;;15.50;11.65;;;8.50;99.90;;;;;;4972318;28;20050;-77
2022/04/12 06:20:07;;;;;;;17.27;11.63;;;8.50;99.90;;;;;;4971539;28;20046;-78
2022/04/12 06:22:34;;;;;;;17.10;11.88;;;8.60;99.90;;;;;;4972712;28;20060;-78
2022/04/12 06:25:00;;;;;;;16.80;11.27;;;8.50;99.90;;;;;;4986952;28;20038;-78
2022/04/12 06:27:52;;;;;;;14.95;11.63;;;8.50;99.90;;;;;;4966073;28;20516;-77
2022/04/12 06:30:19;;;;;;;;;;;8.50;99.90;;;;;;4976270;28;20062;-77
2022/04/12 06:32:46;;;;;;;16.63;11.50;;;8.40;99.90;;;;;;4981657;28;19918;-77
2022/04/12 06:35:13;;;;;;;15.57;11.43;;;8.40;99.90;;;;;;4989387;28;20463;-77
2022/04/12 06:37:40;;;;;;;16.48;11.15;;;8.40;99.90;;;;;;4983183;28;20100;-77
2022/04/12 06:40:08;;;;;;;16.63;11.88;;;8.40;99.90;;;;;;4977728;28;20081;-77
2022/04/12 06:42:34;;;;;;;16.83;11.90;;;8.40;99.90;;;;;;4989100;28;20050;-77
2022/04/12 06:45:00;;;;;;;18.15;11.35;;;8.50;99.90;;;;;;4986869;28;20050;-77
2022/04/12 06:47:26;;;;;;;16.80;11.43;;;8.60;99.90;;;;;;4986271;28;20418;-77
2022/04/12 06:49:52;;;;;;;15.95;11.25;;;8.70;99.90;;;;;;4981758;28;20073;-77
2022/04/12 06:52:19;;;;;;;17.40;11.25;;;8.80;99.90;;;;;;4968098;28;20069;-77
2022/04/12 06:54:46;;;;;;;17.75;11.35;;;9.00;99.90;;;;;;4968360;28;20054;-77
2022/04/12 06:57:12;;;;;;;16.05;11.20;;;9.10;99.90;;;;;;4984335;28;20081;-77
2022/04/12 06:59:38;;;;;;;15.75;11.30;;;9.10;99.90;;;;;;4984725;28;20069;-78
2022/04/12 07:02:04;;;;;;;15.38;10.95;;;9.30;99.90;;;;;;4966771;28;20081;-78
2022/04/12 07:04:30;;;;;;;14.88;10.98;;;9.30;99.90;;;;;;4979546;28;20465;-78
2022/04/12 07:06:56;;;;;;;16.23;11.48;;;9.30;99.90;;;;;;4962871;28;20031;-78
2022/04/12 07:09:27;;;;;;;14.50;10.98;;;9.30;99.90;;;;;;4969946;28;20482;-78
2022/04/12 07:11:54;;;;;;;17.02;11.63;;;9.30;99.90;;;;;;4981217;28;20038;-78
2022/04/12 07:14:20;;;;;;;16.33;11.40;;;9.30;99.90;;;;;;4984844;28;20080;-78
2022/04/12 07:16:46;;;;;;;16.30;11.73;;;9.30;99.90;;;;;;4977996;28;20043;-77
2022/04/12 07:19:11;;;;;;;16.25;11.25;;;9.40;99.90;;;;;;4974376;28;20042;-77
2022/04/12 07:21:37;;;;;;;15.50;11.50;;;9.40;99.90;;;;;;4991892;28;20031;-77
2022/04/12 07:24:03;;;;;;;15.82;11.32;;;9.50;99.90;;;;;;4985296;28;20065;-77
2022/04/12 07:26:30;;;;;;;15.93;11.25;;;9.50;99.90;;;;;;4975669;28;20041;-77
2022/04/12 07:28:56;;;;;;;16.17;10.75;;;9.70;99.90;;;;;;4968891;28;20045;-82
2022/04/12 07:31:22;;;;;;;15.65;10.65;;;9.80;99.90;;;;;;4979467;28;20038;-80
2022/04/12 07:33:47;;;;;;;16.63;11.30;;;9.90;99.50;;;;;;4984544;28;20042;-81
2022/04/12 07:36:14;;;;;;;18.05;11.05;;;10.00;99.00;;;;;;4991924;28;20426;-82
2022/04/12 07:38:41;;;;;;;14.65;10.95;;;10.10;98.40;;;;;;4975014;28;20077;-80
2022/04/12 07:41:07;;;;;;;14.63;10.60;;;10.30;99.80;;;;;;5001877;28;20495;-80
2022/04/12 07:43:33;;;;;;;16.55;10.30;;;10.50;97.90;;;;;;4979537;28;20129;-80
2022/04/12 07:45:58;;;;;;;15.57;11.07;;;10.80;96.50;;;;;;4979765;28;20489;-79
2022/04/12 07:48:24;;;;;;;14.55;9.65;;;11.10;96.00;;;;;;4978894;28;20042;-79
2022/04/12 07:50:50;;;;;;;15.10;10.40;;;11.30;92.80;;;;;;4996193;28;20038;-79
2022/04/12 07:53:16;;;;;;;14.20;10.10;;;11.50;94.40;;;;;;4979159;28;20042;-79
2022/04/12 07:55:41;;;;;;;13.95;10.32;;;11.70;90.30;;;;;;4978362;28;20055;-79
2022/04/12 07:58:07;;;;;;;12.55;9.63;;;11.80;92.60;;;;;;4995471;28;20054;-79
2022/04/12 08:00:33;;;;;;;13.18;9.50;;;11.90;90.20;;;;;;4995635;28;20505;-79
2022/04/12 08:02:58;;;;;;;12.98;9.05;;;12.00;90.70;;;;;;4984602;28;20030;-79
2022/04/12 08:05:24;;;;;;;14.50;9.23;;;12.00;88.00;;;;;;4979322;28;20053;-79
2022/04/12 08:07:50;;;;;;;15.63;9.82;;;12.10;87.90;;;;;;4993340;28;20375;-79
2022/04/12 08:10:17;;;;;;;13.20;9.35;;;12.30;92.10;;;;;;4977449;28;20030;-79
2022/04/12 08:12:43;;;;;;;14.57;9.32;;;12.40;88.50;;;;;;4993147;28;20441;-79
2022/04/12 08:15:10;;;;;;;11.68;8.88;;;12.60;83.60;;;;;;4991640;28;20038;-79
2022/04/12 08:17:36;;;;;;;13.00;9.48;;;12.60;86.30;;;;;;4975920;28;20050;-79
2022/04/12 08:20:05;;;;;;;12.23;7.47;;;12.80;87.30;;;;;;4993288;28;20050;-79
2022/04/12 08:22:32;;;;;;;13.65;9.30;;;12.90;77.80;;;;;;4992728;28;20085;-79
2022/04/12 08:24:58;;;;;;;12.82;8.75;;;12.90;79.10;;;;;;4987465;28;20490;-79
2022/04/12 08:27:25;;;;;;;13.57;9.25;;;13.00;81.90;;;;;;4993083;28;20050;-79
2022/04/12 08:29:50;;;;;;;13.75;9.13;;;13.10;83.30;;;;;;4992673;28;20058;-79
2022/04/12 08:32:17;;;;;;;14.05;9.27;;;13.20;79.60;;;;;;4942876;28;20218;-79
2022/04/12 08:34:43;;;;;;;14.15;7.85;;;13.40;84.60;;;;;;4959738;28;20078;-79
2022/04/12 08:37:10;;;;;;;11.85;9.40;;;13.60;74.30;;;;;;4975076;28;20582;-79
2022/04/12 08:39:36;;;;;;;13.23;9.25;;;13.70;82.80;;;;;;4959461;28;20049;-79
2022/04/12 08:42:03;;;;;;;13.23;8.75;;;13.60;78.60;;;;;;4959361;28;20468;-79
2022/04/12 08:44:30;;;;;;;12.05;9.05;;;13.70;78.30;;;;;;4975265;28;20051;-79
2022/04/12 08:46:57;;;;;;;13.43;9.35;;;13.70;80.70;;;;;;4975691;28;20126;-79
2022/04/12 08:49:23;;;;;;;15.13;9.50;;;13.80;78.20;;;;;;4991008;28;20394;-79
2022/04/12 08:51:50;;;;;;;13.35;9.65;;;13.80;78.70;;;;;;4959263;28;20038;-79
2022/04/12 08:54:19;;;;;;;12.35;8.60;;;13.90;80.80;;;;;;4958831;28;20125;-79
2022/04/12 08:56:48;;;;;;;12.38;8.55;;;14.10;76.80;;;;;;4975235;28;20054;-79
2022/04/12 08:59:14;;;;;;;13.35;8.82;;;14.10;74.40;;;;;;4975022;28;20050;-79
2022/04/12 09:01:41;;;;;;;11.95;8.18;;;14.20;74.70;;;;;;4959180;28;20038;-79
2022/04/12 09:04:08;;;;;;;10.55;6.65;;;14.40;74.80;;;;;;4958132;28;20132;-79
2022/04/12 09:06:34;;;;;;;13.40;9.10;;;14.50;71.40;;;;;;4958869;28;20043;-79
2022/04/12 09:09:11;;;;;;;13.52;8.85;;;14.50;73.10;;;;;;4974787;28;20049;-79
2022/04/12 09:11:43;;;;;;;12.40;8.65;;;14.70;78.20;;;;;;4975082;28;20121;-79
2022/04/12 09:14:13;;;;;;;12.05;8.75;;;14.80;70.90;;;;;;4974749;28;20047;-79
2022/04/12 09:16:46;;;;;;;13.77;8.40;;;14.80;69.80;;;;;;4975133;28;20047;-79
2022/04/12 09:19:12;;;;;;;12.38;8.23;;;14.90;68.00;;;;;;4973736;28;20050;-79
2022/04/12 09:21:47;;;;;;;15.68;8.63;;;14.90;70.50;;;;;;4958779;28;20039;-79
2022/04/12 09:24:21;;;;;;;12.32;8.57;;;14.90;68.00;;;;;;4973564;28;20054;-79
2022/04/12 09:26:57;;;;;;;12.15;7.97;;;15.00;69.80;;;;;;4973439;28;20031;-79
2022/04/12 09:29:27;;;;;;;15.60;8.77;;;15.30;70.70;;;;;;4974498;28;20113;-79
2022/04/12 09:31:57;;;;;;;12.80;8.77;;;15.40;71.50;;;;;;4974949;28;20046;-79
2022/04/12 09:34:24;;;;;;;12.25;8.25;;;15.60;67.80;;;;;;4973651;28;20125;-79
2022/04/12 09:36:50;;;;;;;12.45;7.95;;;15.70;67.60;;;;;;4974538;28;20042;-79
2022/04/12 09:39:21;;;;;;;12.40;8.40;;;15.70;63.60;;;;;;4974217;28;20050;-79
2022/04/12 09:41:48;;;;;;;11.82;8.32;;;15.70;65.50;;;;;;4974497;28;20081;-79
2022/04/12 09:44:17;;;;;;;11.43;8.57;;;15.80;66.40;;;;;;4974122;28;20050;-79
2022/04/12 09:46:44;;;;;;;12.05;8.63;;;15.60;64.90;;;;;;4973999;28;20059;-79
2022/04/12 09:49:10;;;;;;;13.02;7.68;;;15.80;67.30;;;;;;4972791;28;20513;-79
2022/04/12 09:51:37;;;;;;;11.18;7.68;;;15.90;66.60;;;;;;4974069;28;20045;-79
2022/04/12 09:54:07;;;;;;;12.18;8.38;;;16.00;65.10;;;;;;4973762;28;20054;-79
2022/04/12 09:56:35;;;;;;;11.93;8.05;;;16.10;65.60;;;;;;4942494;28;20561;-79
2022/04/12 09:59:06;;;;;;;11.38;7.57;;;16.20;64.20;;;;;;4958006;28;20074;-79
2022/04/12 10:01:39;;;;;;;12.02;8.60;;;16.30;64.10;;;;;;4958212;28;20509;-79
2022/04/12 10:04:10;;;;;;;12.57;8.15;;;16.40;70.00;;;;;;4982272;28;20049;-79
2022/04/12 10:06:41;;;;;;;12.38;8.70;;;16.50;64.90;;;;;;4973711;28;20127;-79
2022/04/12 10:09:11;;;;;;;11.82;8.10;;;16.60;68.20;;;;;;4976292;28;20038;-79
2022/04/12 10:11:38;;;;;;;10.85;8.10;;;16.80;62.00;;;;;;4978838;28;20089;-79
2022/04/12 10:14:05;;;;;;;13.50;8.93;;;16.80;65.40;;;;;;4957758;28;20137;-79
2022/04/12 10:16:32;;;;;;;11.07;8.32;;;17.00;66.10;;;;;;4943408;28;20162;-79
2022/04/12 10:19:01;;;;;;;13.88;8.90;;;17.10;66.30;;;;;;4992099;28;20050;-79
2022/04/12 10:21:27;;;;;;;11.55;8.23;;;17.00;66.10;;;;;;4993404;28;20437;-79
2022/04/12 10:23:58;;;;;;;12.10;8.13;;;17.00;62.70;;;;;;4988075;28;20134;-80
2022/04/12 10:26:26;;;;;;;12.30;8.82;;;17.00;64.60;;;;;;4982715;28;20077;-81
2022/04/12 10:29:00;;;;;;;12.35;8.77;;;17.00;64.70;;;;;;4992383;28;20053;-81
2022/04/12 10:31:33;;;;;;;13.15;8.60;;;16.80;63.60;;;;;;4983233;28;20034;-81
2022/04/12 10:34:01;;;;;;;12.15;8.45;;;16.80;66.10;;;;;;4985899;28;20513;-81
2022/04/12 10:36:55;;;;;;;11.75;8.32;;;17.00;65.10;;;;;;4978179;28;20397;-81
2022/04/12 10:39:35;;;;;;;11.90;8.15;;;17.00;63.70;;;;;;4973255;28;20134;-81
2022/04/12 10:42:07;;;;;;;11.93;8.73;;;17.10;63.60;;;;;;4973335;28;20051;-81
2022/04/12 10:44:53;;;;;;;13.13;8.38;;;17.30;66.60;;;;;;4982973;28;20489;-81
2022/04/12 10:47:30;;;;;;;9.93;6.70;;;17.50;63.20;;;;;;4989228;28;20045;-81
2022/04/12 10:49:59;;;;;;;11.45;7.75;;;17.60;61.80;;;;;;4973369;28;20077;-81
2022/04/12 10:52:42;;;;;;;12.18;7.72;;;17.50;62.60;;;;;;4972904;28;20045;-81
2022/04/12 10:55:17;;;;;;;12.80;8.60;;;17.70;61.90;;;;;;4973201;28;20391;-81
2022/04/12 10:57:43;;;;;;;13.32;7.88;;;17.70;61.70;;;;;;4956927;28;20047;-81
2022/04/12 11:00:17;;;;;;;11.45;7.07;;;17.80;61.90;;;;;;4973173;28;20057;-81
2022/04/12 11:02:57;;;;;;;12.93;8.75;;;17.80;60.70;;;;;;4971962;28;20073;-81
2022/04/12 11:05:39;;;;;;;14.18;8.00;;;17.80;65.40;;;;;;4974644;28;20035;-81
2022/04/12 11:08:06;;;;;;;11.40;7.80;;;17.80;61.70;;;;;;4972580;28;20041;-81
2022/04/12 11:10:32;;;;;;;15.02;8.82;;;17.90;60.60;;;;;;4973742;28;20034;-81
2022/04/12 11:13:10;;;;;;;12.40;9.02;;;18.00;61.70;;;;;;4960722;28;20038;-81
2022/04/12 11:15:38;;;;;;;12.38;8.85;;;18.00;60.20;;;;;;4971954;28;20039;-81
2022/04/12 11:18:13;;;;;;;12.32;8.38;;;18.00;61.40;;;;;;4970210;28;20046;-81
2022/04/12 11:20:45;;;;;;;12.02;8.43;;;18.10;60.20;;;;;;4971940;28;20402;-81
2022/04/12 11:23:13;;;;;;;14.32;8.18;;;18.10;61.30;;;;;;4972468;28;20074;-80
2022/04/12 11:25:49;;;;;;;11.65;8.32;;;18.10;60.60;;;;;;4945048;28;20041;-80
2022/04/12 11:28:21;;;;;;;10.50;5.88;;;18.10;60.70;;;;;;4976523;28;20047;-79
2022/04/12 11:30:58;;;;;;;13.55;8.77;;;18.10;58.70;;;;;;4971384;28;20043;-79
2022/04/12 11:33:29;;;;;;;13.27;9.02;;;18.10;60.10;;;;;;4958740;28;20047;-79
2022/04/12 11:35:56;;;;;;;12.80;8.10;;;18.10;59.50;;;;;;4942691;28;20034;-79
2022/04/12 11:38:23;;;;;;;14.13;9.70;;;18.20;59.80;;;;;;4956773;28;20038;-79
2022/04/12 11:40:52;;;;;;;13.43;8.98;;;18.20;63.10;;;;;;4972203;28;20055;-79
2022/04/12 11:43:25;;;;;;;13.25;9.35;;;18.10;60.40;;;;;;4973125;28;20038;-79
2022/04/12 11:45:58;;;;;;;13.98;9.43;;;18.10;61.90;;;;;;4975271;28;20046;-79
2022/04/12 11:48:28;;;;;;;13.02;9.30;;;18.20;64.00;;;;;;4970645;28;20043;-79
2022/04/12 11:50:55;;;;;;;13.20;8.73;;;18.30;60.30;;;;;;4977665;28;20039;-79
2022/04/12 11:53:23;;;;;;;14.70;9.50;;;18.30;62.80;;;;;;4938777;28;20066;-79
2022/04/12 11:55:48;;;;;;;16.20;9.98;;;18.30;62.60;;;;;;4973553;28;20069;-79
2022/04/12 11:58:18;;;;;;;13.50;9.60;;;18.30;62.60;;;;;;4973724;28;20050;-80
2022/04/12 12:00:45;;;;;;;13.50;9.27;;;18.40;63.80;;;;;;4971816;28;20054;-80
2022/04/12 12:03:18;;;;;;;14.98;9.20;;;18.40;61.20;;;;;;4957731;28;20039;-80
2022/04/12 12:05:45;;;;;;;14.30;8.27;;;18.50;64.20;;;;;;4972393;28;20046;-80
2022/04/12 12:08:12;;;;;;;14.55;9.40;;;18.50;61.50;;;;;;4972174;28;20043;-80
2022/04/12 12:10:38;;;;;;;15.30;9.38;;;18.50;61.70;;;;;;4973012;28;20031;-80
2022/04/12 12:13:07;;;;;;;13.63;9.60;;;18.70;61.40;;;;;;4975684;28;20078;-80
2022/04/12 12:15:34;;;;;;;13.65;9.88;;;18.70;60.40;;;;;;4976273;28;20066;-80
2022/04/12 12:18:06;;;;;;;14.63;10.05;;;18.80;61.50;;;;;;4974923;28;20043;-80
2022/04/12 12:20:35;;;;;;;17.45;10.40;;;19.00;65.30;;;;;;4976357;28;20158;-80
2022/04/12 12:23:09;;;;;;;16.15;10.30;;;19.30;62.80;;;;;;4975620;28;20035;-81
2022/04/12 12:25:55;;;;;;;15.63;10.07;;;19.50;62.70;;;;;;4976950;28;20042;-81
2022/04/12 12:28:26;;;;;;;15.30;10.13;;;19.60;58.60;;;;;;4991211;28;20070;-81
2022/04/12 12:31:03;;;;;;;14.70;9.45;;;19.60;60.40;;;;;;4969189;28;20389;-81
2022/04/12 12:33:47;;;;;;;15.73;10.63;;;19.60;57.70;;;;;;4994176;28;20044;-81
2022/04/12 12:36:21;;;;;;;15.85;10.65;;;19.40;59.80;;;;;;4995153;28;20042;-81
2022/04/12 12:38:47;;;;;;;16.20;10.70;;;19.50;61.40;;;;;;4994836;28;20035;-81
2022/04/12 12:41:25;;;;;;;16.50;9.98;;;19.60;60.00;;;;;;4967775;28;20043;-81